createdAt,value
2022-08-26T00:00:03.258Z,947.35
2022-08-26T00:05:03.152Z,947.45
2022-08-26T00:10:03.407Z,947.49
2022-08-26T00:15:03.237Z,947.47
2022-08-26T00:20:03.248Z,947.45
2022-08-26T00:25:03.176Z,947.47
2022-08-26T00:30:03.385Z,947.45
2022-08-26T00:35:03.142Z,947.49
2022-08-26T00:40:05.113Z,947.49
2022-08-26T00:45:03.420Z,947.49
2022-08-26T00:50:03.305Z,947.47
2022-08-26T00:55:03.122Z,947.51
2022-08-26T01:00:03.331Z,947.57
2022-08-26T01:05:03.325Z,947.59
2022-08-26T01:10:03.341Z,947.59
2022-08-26T01:15:03.109Z,947.61
2022-08-26T01:20:03.321Z,947.59
2022-08-26T01:25:03.519Z,947.59
2022-08-26T01:30:04.314Z,947.55
2022-08-26T01:35:03.115Z,947.61
2022-08-26T01:40:03.331Z,947.59
2022-08-26T01:45:03.150Z,947.57
2022-08-26T01:50:03.247Z,947.57
2022-08-26T01:55:03.212Z,947.55
2022-08-26T02:00:03.325Z,947.57
2022-08-26T02:05:03.112Z,947.53
2022-08-26T02:10:08.233Z,947.49
2022-08-26T02:15:03.063Z,947.51
2022-08-26T02:20:03.301Z,947.49
2022-08-26T02:25:08.758Z,947.49
2022-08-26T02:30:03.346Z,947.51
2022-08-26T02:35:03.170Z,947.51
2022-08-26T02:40:03.222Z,947.55
2022-08-26T02:45:03.187Z,947.55
2022-08-26T02:50:03.435Z,947.55
2022-08-26T02:55:04.551Z,947.53
2022-08-26T03:00:03.307Z,947.49
2022-08-26T03:05:03.097Z,947.47
2022-08-26T03:10:06.970Z,947.45
2022-08-26T03:15:03.076Z,947.41
2022-08-26T03:20:03.241Z,947.43
2022-08-26T03:25:03.109Z,947.45
2022-08-26T03:30:03.407Z,947.43
2022-08-26T03:35:03.310Z,947.41
2022-08-26T03:40:03.461Z,947.35
2022-08-26T03:45:04.231Z,947.28
2022-08-26T03:50:03.183Z,947.28
2022-08-26T03:55:03.233Z,947.24
2022-08-26T04:00:03.439Z,947.16
2022-08-26T04:05:03.115Z,947.10
2022-08-26T04:10:03.726Z,947.08
2022-08-26T04:15:03.099Z,947.00
2022-08-26T04:20:03.306Z,946.92
2022-08-26T04:25:03.150Z,946.78
2022-08-26T04:30:03.333Z,946.76
2022-08-26T04:35:03.192Z,946.71
2022-08-26T04:40:03.273Z,946.65
2022-08-26T04:45:05.736Z,946.61
2022-08-26T04:50:03.227Z,946.61
2022-08-26T04:55:03.097Z,946.55
2022-08-26T05:00:03.241Z,946.49
2022-08-26T05:05:03.078Z,946.41
2022-08-26T05:10:03.272Z,946.37
2022-08-26T05:15:03.245Z,946.31
2022-08-26T05:20:03.179Z,946.27
2022-08-26T05:25:03.120Z,946.18
2022-08-26T05:30:03.211Z,946.06
2022-08-26T05:35:03.067Z,946.02
2022-08-26T05:40:03.395Z,946.00
2022-08-26T05:45:03.323Z,946.00
2022-08-26T05:50:03.375Z,946.00
2022-08-26T05:55:03.142Z,945.90
2022-08-26T06:00:03.190Z,945.86
2022-08-26T06:05:03.120Z,945.82
2022-08-26T06:10:28.508Z,945.78
2022-08-26T06:15:04.102Z,945.76
2022-08-26T06:20:03.205Z,945.72
2022-08-26T06:25:03.221Z,945.69
2022-08-26T06:30:03.323Z,945.65
2022-08-26T06:35:03.065Z,945.61
2022-08-26T06:40:03.251Z,945.59
2022-08-26T06:45:03.282Z,945.57
2022-08-26T06:50:03.301Z,945.55
2022-08-26T06:55:03.106Z,945.53
2022-08-26T07:00:03.253Z,945.55
2022-08-26T07:05:03.086Z,945.55
2022-08-26T07:10:03.350Z,945.57
2022-08-26T07:15:03.091Z,945.57
2022-08-26T07:20:03.293Z,945.57
2022-08-26T07:25:03.041Z,945.57
2022-08-26T07:30:03.360Z,945.53
2022-08-26T07:35:03.038Z,945.49
2022-08-26T07:40:03.196Z,945.41
2022-08-26T07:45:03.137Z,945.37
2022-08-26T07:50:03.233Z,945.41
2022-08-26T07:55:03.105Z,945.41
2022-08-26T08:00:03.268Z,945.37
2022-08-26T08:05:03.091Z,945.41
2022-08-26T08:10:06.681Z,945.41
2022-08-26T08:15:03.104Z,945.49
2022-08-26T08:20:03.219Z,945.55
2022-08-26T08:25:03.082Z,945.51
2022-08-26T08:30:03.231Z,945.51
2022-08-26T08:35:03.436Z,945.59
2022-08-26T08:40:03.184Z,945.65
2022-08-26T08:45:03.098Z,945.67
2022-08-26T08:50:03.171Z,945.69
2022-08-26T08:55:03.111Z,945.69
2022-08-26T09:00:03.271Z,945.74
2022-08-26T09:05:03.081Z,945.74
2022-08-26T09:10:08.183Z,945.78
2022-08-26T09:15:08.095Z,945.84
2022-08-26T09:20:03.265Z,945.90
2022-08-26T09:25:03.173Z,945.96
2022-08-26T09:30:03.356Z,946.02
2022-08-26T09:35:03.045Z,946.06
2022-08-26T09:40:03.334Z,946.18
2022-08-26T09:45:03.112Z,946.22
2022-08-26T09:50:03.213Z,946.23
2022-08-26T09:55:03.394Z,946.23
2022-08-26T10:00:03.440Z,946.31
2022-08-26T10:05:04.510Z,946.35
2022-08-26T10:10:03.165Z,946.35
2022-08-26T10:15:03.224Z,946.35
2022-08-26T10:20:03.228Z,946.41
2022-08-26T10:25:03.107Z,946.45
2022-08-26T10:30:03.380Z,946.51
2022-08-26T10:35:03.073Z,946.57
2022-08-26T10:40:03.422Z,946.59
2022-08-26T10:45:03.011Z,946.63
2022-08-26T10:50:03.617Z,946.65
2022-08-26T10:55:03.228Z,946.71
2022-08-26T11:00:04.281Z,946.76
2022-08-26T11:05:03.208Z,946.76
2022-08-26T11:10:03.293Z,946.86
2022-08-26T11:15:03.044Z,946.88
2022-08-26T11:20:07.556Z,946.90
2022-08-26T11:25:03.098Z,946.88
2022-08-26T11:30:03.352Z,946.88
2022-08-26T11:35:03.109Z,946.90
2022-08-26T11:40:08.243Z,946.96
2022-08-26T11:45:05.599Z,947.00
2022-08-26T11:50:03.190Z,946.96
2022-08-26T11:55:03.137Z,946.98
2022-08-26T12:00:03.325Z,947.02
2022-08-26T12:05:03.183Z,947.02
2022-08-26T12:10:08.307Z,947.00
2022-08-26T12:15:03.109Z,946.98
2022-08-26T12:20:03.198Z,946.96
2022-08-26T12:25:03.197Z,947.02
2022-08-26T12:30:03.224Z,946.98
2022-08-26T12:35:10.181Z,946.96
2022-08-26T12:40:03.563Z,946.92
2022-08-26T12:45:03.134Z,946.94
2022-08-26T12:50:03.244Z,947.00
2022-08-26T12:55:03.159Z,946.98
2022-08-26T13:00:03.210Z,946.98
2022-08-26T13:05:03.290Z,947.02
2022-08-26T13:10:03.249Z,947.04
2022-08-26T13:15:03.145Z,947.08
2022-08-26T13:20:04.262Z,947.10
2022-08-26T13:25:03.143Z,947.06
2022-08-26T13:30:03.210Z,947.08
2022-08-26T13:35:03.920Z,947.08
2022-08-26T13:40:03.254Z,947.02
2022-08-26T13:45:03.117Z,946.98
2022-08-26T13:50:03.241Z,947.00
2022-08-26T13:55:03.182Z,946.98
2022-08-26T14:00:03.249Z,946.96
2022-08-26T14:05:03.156Z,946.86
2022-08-26T14:10:08.306Z,946.86
2022-08-26T14:15:03.257Z,946.76
2022-08-26T14:20:03.217Z,946.71
2022-08-26T14:25:03.156Z,946.61
2022-08-26T14:30:03.262Z,946.53
2022-08-26T14:35:03.131Z,946.53
2022-08-26T14:40:03.286Z,946.43
2022-08-26T14:45:03.119Z,946.35
2022-08-26T14:50:03.237Z,946.31
2022-08-26T14:55:03.113Z,946.23
2022-08-26T15:00:03.330Z,946.08
2022-08-26T15:05:03.120Z,946.02
2022-08-26T15:10:03.185Z,945.94
2022-08-26T15:15:03.080Z,945.86
2022-08-26T15:20:03.250Z,945.72
2022-08-26T15:25:03.135Z,945.63
2022-08-26T15:30:03.207Z,945.55
2022-08-26T15:35:06.901Z,945.51
2022-08-26T15:40:03.328Z,945.39
2022-08-26T15:45:03.124Z,945.31
2022-08-26T15:50:03.329Z,945.23
2022-08-26T15:55:08.061Z,945.20
2022-08-26T16:00:03.225Z,945.12
2022-08-26T16:05:03.116Z,945.02
2022-08-26T16:10:03.204Z,944.90
2022-08-26T16:15:03.221Z,944.82
2022-08-26T16:20:03.250Z,944.74
2022-08-26T16:25:03.279Z,944.68
2022-08-26T16:30:03.280Z,944.63
2022-08-26T16:35:03.293Z,944.57
2022-08-26T16:40:03.423Z,944.51
2022-08-26T16:45:03.093Z,944.41
2022-08-26T16:50:03.297Z,944.37
2022-08-26T16:55:03.357Z,944.25
2022-08-26T17:00:03.192Z,944.13
2022-08-26T17:05:03.098Z,944.04
2022-08-26T17:10:03.322Z,943.96
2022-08-26T17:15:03.332Z,943.84
2022-08-26T17:20:04.374Z,943.72
2022-08-26T17:25:03.278Z,943.66
2022-08-26T17:30:03.243Z,943.49
2022-08-26T17:35:03.249Z,943.43
2022-08-26T17:40:03.432Z,943.31
2022-08-26T17:45:03.105Z,943.27
2022-08-26T17:50:04.475Z,943.20
2022-08-26T17:55:03.204Z,943.16
2022-08-26T18:00:03.326Z,943.12
2022-08-26T18:05:03.130Z,943.06
2022-08-26T18:10:03.340Z,943.00
2022-08-26T18:15:03.121Z,942.98
2022-08-26T18:20:03.270Z,942.94
2022-08-26T18:25:03.064Z,942.94
2022-08-26T18:30:03.364Z,942.94
2022-08-26T18:35:03.137Z,942.88
2022-08-26T18:40:04.511Z,942.82
2022-08-26T18:45:03.174Z,942.84
2022-08-26T18:50:03.162Z,942.86
2022-08-26T18:55:03.110Z,942.86
2022-08-26T19:00:03.324Z,942.82
2022-08-26T19:05:03.223Z,942.82
2022-08-26T19:10:04.152Z,942.78
2022-08-26T19:15:03.119Z,942.78
2022-08-26T19:20:03.303Z,942.80
2022-08-26T19:25:03.067Z,942.78
2022-08-26T19:30:03.215Z,942.76
2022-08-26T19:35:03.158Z,942.74
2022-08-26T19:40:03.299Z,942.70
2022-08-26T19:45:03.151Z,942.70
2022-08-26T19:50:03.222Z,942.70
2022-08-26T19:55:03.100Z,942.72
2022-08-26T20:00:03.305Z,942.72
2022-08-26T20:05:03.216Z,942.68
2022-08-26T20:10:03.196Z,942.68
2022-08-26T20:15:03.105Z,942.65
2022-08-26T20:20:03.355Z,942.68
2022-08-26T20:25:03.056Z,942.68
2022-08-26T20:30:03.186Z,942.70
2022-08-26T20:35:03.143Z,942.66
2022-08-26T20:40:03.396Z,942.66
2022-08-26T20:45:03.157Z,942.66
2022-08-26T20:50:03.200Z,942.70
2022-08-26T20:55:03.063Z,942.68
2022-08-26T21:00:03.204Z,942.68
2022-08-26T21:05:03.267Z,942.70
2022-08-26T21:10:03.539Z,942.72
2022-08-26T21:15:03.219Z,942.70
2022-08-26T21:20:03.316Z,942.72
2022-08-26T21:25:04.210Z,942.68
2022-08-26T21:30:03.279Z,942.72
2022-08-26T21:35:03.046Z,942.70
2022-08-26T21:40:03.621Z,942.72
2022-08-26T21:45:03.199Z,942.72
2022-08-26T21:50:03.309Z,942.74
2022-08-26T21:55:03.194Z,942.78
2022-08-26T22:00:04.621Z,942.78
2022-08-26T22:05:03.127Z,942.86
2022-08-26T22:10:03.224Z,942.84
2022-08-26T22:15:03.200Z,942.84
2022-08-26T22:20:03.414Z,942.84
2022-08-26T22:25:03.149Z,942.90
2022-08-26T22:30:03.168Z,942.92
2022-08-26T22:35:03.122Z,942.96
2022-08-26T22:40:08.399Z,943.00
2022-08-26T22:45:03.407Z,943.04
2022-08-26T22:50:03.510Z,943.00
2022-08-26T22:55:03.120Z,943.08
2022-08-26T23:00:03.257Z,943.12
2022-08-26T23:05:03.181Z,943.18
2022-08-26T23:10:03.214Z,943.16
2022-08-26T23:15:03.229Z,943.21
2022-08-26T23:20:03.329Z,943.25
2022-08-26T23:25:03.217Z,943.27
2022-08-26T23:30:03.358Z,943.23
2022-08-26T23:35:03.093Z,943.23
2022-08-26T23:40:03.411Z,943.31
2022-08-26T23:45:05.370Z,943.43
2022-08-26T23:50:03.682Z,943.43
2022-08-26T23:55:03.171Z,943.47
